createdAt,value
2022-08-03T00:01:47.585Z,50.00
2022-08-03T00:04:36.974Z,50.20
2022-08-03T00:07:26.439Z,50.40
2022-08-03T00:10:17.354Z,50.50
2022-08-03T00:13:06.946Z,50.70
2022-08-03T00:15:57.328Z,50.70
2022-08-03T00:18:46.719Z,50.80
2022-08-03T00:21:36.138Z,50.80
2022-08-03T00:24:25.586Z,50.80
2022-08-03T00:27:16.688Z,50.60
2022-08-03T00:30:08.341Z,50.80
2022-08-03T00:32:58.026Z,50.90
2022-08-03T00:35:50.185Z,51.20
2022-08-03T00:38:40.610Z,51.20
2022-08-03T00:41:30.068Z,51.20
2022-08-03T00:44:20.817Z,51.20
2022-08-03T00:47:11.002Z,51.30
2022-08-03T00:50:00.398Z,51.50
2022-08-03T00:52:50.662Z,51.40
2022-08-03T00:55:40.155Z,51.50
2022-08-03T00:58:29.646Z,51.70
2022-08-03T01:01:20.461Z,51.50
2022-08-03T01:04:09.865Z,51.60
2022-08-03T01:07:10.808Z,51.60
2022-08-03T01:10:05.362Z,51.90
2022-08-03T01:13:03.130Z,51.90
2022-08-03T01:15:59.714Z,52.00
2022-08-03T01:18:56.697Z,52.00
2022-08-03T01:21:59.641Z,52.30
2022-08-03T01:24:58.665Z,52.40
2022-08-03T01:28:02.395Z,52.40
2022-08-03T01:30:58.069Z,52.60
2022-08-03T01:34:02.560Z,52.60
2022-08-03T01:36:58.039Z,52.70
2022-08-03T01:39:47.832Z,52.60
2022-08-03T01:42:40.040Z,52.50
2022-08-03T01:45:33.876Z,52.70
2022-08-03T01:48:25.188Z,52.80
2022-08-03T01:51:17.406Z,52.60
2022-08-03T01:54:08.435Z,52.70
2022-08-03T01:56:59.959Z,52.60
2022-08-03T01:59:52.166Z,52.80
2022-08-03T02:02:43.942Z,53.00
2022-08-03T02:05:36.501Z,53.10
2022-08-03T02:08:27.256Z,53.10
2022-08-03T02:11:17.123Z,53.00
2022-08-03T02:14:07.963Z,53.10
2022-08-03T02:16:58.635Z,53.20
2022-08-03T02:19:49.098Z,53.20
2022-08-03T02:22:42.399Z,53.40
2022-08-03T02:25:33.773Z,53.60
2022-08-03T02:28:28.104Z,53.60
2022-08-03T02:31:21.113Z,53.70
2022-08-03T02:34:15.741Z,53.80
2022-08-03T02:37:07.332Z,53.90
2022-08-03T02:40:03.037Z,53.80
2022-08-03T02:42:57.551Z,54.00
2022-08-03T02:45:50.617Z,54.00
2022-08-03T02:48:42.518Z,53.90
2022-08-03T02:51:35.274Z,54.00
2022-08-03T02:54:26.423Z,54.00
2022-08-03T02:57:19.380Z,54.00
2022-08-03T03:00:11.042Z,54.10
2022-08-03T03:03:04.022Z,54.20
2022-08-03T03:05:57.694Z,54.20
2022-08-03T03:08:48.139Z,54.30
2022-08-03T03:11:40.440Z,54.20
2022-08-03T03:14:33.746Z,54.40
2022-08-03T03:17:23.990Z,54.50
2022-08-03T03:20:14.095Z,54.30
2022-08-03T03:23:05.180Z,54.50
2022-08-03T03:25:56.118Z,54.60
2022-08-03T03:28:46.538Z,54.50
2022-08-03T03:31:37.633Z,54.60
2022-08-03T03:34:27.482Z,54.70
2022-08-03T03:37:18.796Z,54.70
2022-08-03T03:40:10.003Z,54.90
2022-08-03T03:42:59.437Z,54.90
2022-08-03T03:45:49.792Z,55.00
2022-08-03T03:48:40.987Z,55.00
2022-08-03T03:51:30.734Z,55.20
2022-08-03T03:54:20.146Z,55.10
2022-08-03T03:57:10.411Z,55.20
2022-08-03T04:00:03.643Z,55.20
2022-08-03T04:03:13.290Z,55.30
2022-08-03T04:06:21.661Z,55.30
2022-08-03T04:09:30.002Z,55.60
2022-08-03T04:12:21.153Z,55.60
2022-08-03T04:15:11.940Z,55.60
2022-08-03T04:18:02.942Z,55.60
2022-08-03T04:20:54.640Z,55.70
2022-08-03T04:23:50.249Z,55.90
2022-08-03T04:26:43.165Z,56.00
2022-08-03T04:29:38.648Z,56.10
2022-08-03T04:32:44.131Z,56.10
2022-08-03T04:36:01.604Z,56.30
2022-08-03T04:38:59.276Z,57.00
2022-08-03T04:42:02.184Z,59.20
2022-08-03T04:45:01.320Z,59.50
2022-08-03T04:47:52.115Z,60.50
2022-08-03T04:50:42.981Z,61.10
2022-08-03T04:53:32.496Z,61.60
2022-08-03T04:56:23.323Z,61.80
2022-08-03T04:59:13.388Z,62.50
2022-08-03T05:02:02.957Z,61.80
2022-08-03T05:04:52.585Z,61.30
2022-08-03T05:07:41.927Z,60.80
2022-08-03T05:10:31.437Z,60.10
2022-08-03T05:13:22.208Z,59.50
2022-08-03T05:16:11.908Z,58.70
2022-08-03T05:19:01.312Z,58.50
2022-08-03T05:21:52.874Z,58.20
2022-08-03T05:24:42.453Z,58.00
2022-08-03T05:27:31.977Z,57.80
2022-08-03T05:30:27.141Z,57.30
2022-08-03T05:33:23.167Z,56.80
2022-08-03T05:36:12.678Z,56.40
2022-08-03T05:39:02.906Z,56.10
2022-08-03T05:41:52.548Z,55.80
2022-08-03T05:44:42.170Z,55.50
2022-08-03T05:47:33.008Z,55.20
2022-08-03T05:50:22.997Z,54.90
2022-08-03T05:53:12.633Z,54.70
2022-08-03T05:56:03.427Z,54.40
2022-08-03T05:59:22.469Z,54.10
2022-08-03T06:02:12.275Z,53.70
2022-08-03T06:05:03.261Z,53.40
2022-08-03T06:07:52.736Z,53.00
2022-08-03T06:10:42.310Z,52.70
2022-08-03T06:13:32.334Z,52.40
2022-08-03T06:16:21.812Z,52.20
2022-08-03T06:19:11.357Z,52.00
2022-08-03T06:22:03.028Z,51.80
2022-08-03T06:24:53.646Z,51.40
2022-08-03T06:27:43.383Z,51.20
2022-08-03T06:30:33.159Z,51.50
2022-08-03T06:33:22.663Z,50.40
2022-08-03T06:36:13.262Z,50.10
2022-08-03T06:39:05.180Z,49.70
2022-08-03T06:41:54.658Z,48.90
2022-08-03T06:44:45.063Z,48.40
2022-08-03T06:47:34.467Z,47.90
2022-08-03T06:50:26.326Z,47.20
2022-08-03T06:53:19.913Z,46.70
2022-08-03T06:56:12.201Z,46.20
2022-08-03T06:59:01.849Z,45.80
2022-08-03T07:01:51.278Z,45.60
2022-08-03T07:04:41.412Z,45.20
2022-08-03T07:07:30.924Z,44.80
2022-08-03T07:10:20.566Z,44.40
2022-08-03T07:13:11.968Z,43.90
2022-08-03T07:16:02.438Z,43.30
2022-08-03T07:18:53.115Z,42.80
2022-08-03T07:21:42.536Z,42.40
2022-08-03T07:24:32.099Z,41.80
2022-08-03T07:27:21.791Z,41.20
2022-08-03T07:30:14.430Z,40.70
2022-08-03T07:33:03.980Z,40.00
2022-08-03T07:35:53.730Z,40.00
2022-08-03T07:38:43.230Z,39.30
2022-08-03T07:41:32.951Z,38.90
2022-08-03T07:44:22.730Z,38.50
2022-08-03T07:47:19.403Z,38.20
2022-08-03T07:50:12.290Z,38.00
2022-08-03T07:53:01.742Z,37.30
2022-08-03T07:55:51.486Z,37.00
2022-08-03T07:58:40.966Z,36.60
2022-08-03T08:01:32.811Z,36.40
2022-08-03T08:04:23.867Z,36.10
2022-08-03T08:07:13.285Z,35.70
2022-08-03T08:10:05.826Z,35.50
2022-08-03T08:12:56.303Z,35.30
2022-08-03T08:15:45.775Z,34.80
2022-08-03T08:18:36.702Z,34.50
2022-08-03T08:21:27.486Z,34.10
2022-08-03T08:24:36.867Z,33.70
2022-08-03T08:27:26.377Z,33.60
2022-08-03T08:30:19.417Z,33.20
2022-08-03T08:33:15.690Z,32.80
2022-08-03T08:36:15.367Z,32.70
2022-08-03T08:39:06.622Z,32.40
2022-08-03T08:41:56.150Z,32.00
2022-08-03T08:44:45.594Z,31.80
2022-08-03T08:47:51.807Z,32.00
2022-08-03T08:50:41.738Z,31.00
2022-08-03T08:53:33.221Z,30.70
2022-08-03T08:56:27.187Z,30.20
2022-08-03T08:59:17.119Z,29.90
2022-08-03T09:02:06.574Z,29.90
2022-08-03T09:04:56.355Z,30.00
2022-08-03T09:07:47.463Z,29.30
2022-08-03T09:10:37.058Z,29.20
2022-08-03T09:13:29.214Z,29.00
2022-08-03T09:16:21.568Z,28.80
2022-08-03T09:19:15.896Z,28.70
2022-08-03T09:22:16.793Z,28.20
2022-08-03T09:25:27.221Z,27.60
2022-08-03T09:29:00.005Z,28.00
2022-08-03T09:31:35.278Z,27.60
2022-08-03T09:34:28.562Z,26.90
2022-08-03T09:37:19.935Z,27.10
2022-08-03T09:40:36.874Z,27.00
2022-08-03T09:43:27.650Z,26.40
2022-08-03T09:46:17.311Z,26.90
2022-08-03T09:49:14.759Z,27.00
2022-08-03T09:52:33.144Z,26.40
2022-08-03T09:56:33.567Z,26.50
2022-08-03T09:58:34.929Z,27.10
2022-08-03T10:01:35.176Z,27.00
2022-08-03T10:04:26.892Z,26.30
2022-08-03T10:07:16.624Z,26.60
2022-08-03T10:10:31.302Z,26.50
2022-08-03T10:13:19.590Z,26.20
2022-08-03T10:16:21.817Z,25.90
2022-08-03T10:19:15.232Z,25.80
2022-08-03T10:22:13.602Z,25.70
2022-08-03T10:25:08.456Z,25.10
2022-08-03T10:27:59.922Z,25.00
2022-08-03T10:30:53.322Z,24.80
2022-08-03T10:33:51.372Z,24.30
2022-08-03T10:36:42.974Z,24.20
2022-08-03T10:39:33.979Z,24.00
2022-08-03T10:42:27.183Z,23.80
2022-08-03T10:45:21.636Z,23.60
2022-08-03T10:48:11.914Z,23.40
2022-08-03T10:51:01.723Z,23.70
2022-08-03T10:53:55.530Z,23.60
2022-08-03T10:57:18.450Z,23.50
2022-08-03T11:00:11.944Z,23.40
2022-08-03T11:03:10.247Z,23.40
2022-08-03T11:06:19.118Z,22.80
2022-08-03T11:09:26.332Z,22.50
2022-08-03T11:12:30.067Z,22.20
2022-08-03T11:15:34.549Z,22.10
2022-08-03T11:18:26.889Z,21.60
2022-08-03T11:21:16.565Z,21.90
2022-08-03T11:24:06.744Z,21.90
2022-08-03T11:27:21.141Z,21.70
2022-08-03T11:30:27.266Z,20.90
2022-08-03T11:33:31.550Z,21.20
2022-08-03T11:36:32.459Z,21.00
2022-08-03T11:39:22.225Z,21.10
2022-08-03T11:42:45.691Z,21.00
2022-08-03T11:45:37.301Z,21.10
2022-08-03T11:48:35.401Z,21.30
2022-08-03T11:51:26.904Z,21.40
2022-08-03T11:54:20.886Z,21.60
2022-08-03T11:57:10.543Z,21.60
2022-08-03T12:00:00.340Z,21.70
2022-08-03T12:03:09.886Z,21.90
2022-08-03T12:06:01.737Z,22.60
2022-08-03T12:08:51.873Z,22.20
2022-08-03T12:11:41.329Z,22.40
2022-08-03T12:14:52.166Z,22.70
2022-08-03T12:17:42.735Z,22.90
2022-08-03T12:20:34.731Z,23.10
2022-08-03T12:23:24.787Z,23.30
2022-08-03T12:26:15.513Z,23.40
2022-08-03T12:29:04.960Z,23.50
2022-08-03T12:31:56.062Z,23.70
2022-08-03T12:34:49.692Z,23.70
2022-08-03T12:37:40.445Z,23.90
2022-08-03T12:40:31.949Z,24.00
2022-08-03T12:43:21.583Z,24.10
2022-08-03T12:46:16.445Z,24.20
2022-08-03T12:49:09.366Z,24.50
2022-08-03T12:52:05.479Z,24.50
2022-08-03T12:55:00.282Z,24.50
2022-08-03T12:57:49.963Z,24.60
2022-08-03T13:00:40.407Z,24.60
2022-08-03T13:03:42.796Z,24.70
2022-08-03T13:06:32.750Z,24.80
2022-08-03T13:09:22.158Z,25.00
2022-08-03T13:12:16.802Z,25.00
2022-08-03T13:15:08.990Z,25.10
2022-08-03T13:17:58.936Z,25.20
2022-08-03T13:20:49.036Z,25.20
2022-08-03T13:23:38.581Z,25.20
2022-08-03T13:26:28.107Z,25.20
2022-08-03T13:29:18.973Z,25.30
2022-08-03T13:32:09.039Z,25.40
2022-08-03T13:34:58.493Z,25.50
2022-08-03T13:37:49.021Z,25.60
2022-08-03T13:40:41.762Z,26.00
2022-08-03T13:43:32.508Z,25.70
2022-08-03T13:46:24.008Z,25.70
2022-08-03T13:49:13.766Z,25.80
2022-08-03T13:52:03.875Z,25.80
2022-08-03T13:54:53.398Z,25.80
2022-08-03T13:58:02.244Z,25.80
2022-08-03T14:00:54.225Z,25.90
2022-08-03T14:03:49.039Z,26.00
2022-08-03T14:06:38.688Z,26.10
2022-08-03T14:09:35.315Z,26.10
2022-08-03T14:12:24.777Z,26.20
2022-08-03T14:15:14.602Z,26.30
2022-08-03T14:18:04.232Z,26.30
2022-08-03T14:20:58.747Z,26.40
2022-08-03T14:23:50.273Z,26.50
2022-08-03T14:26:39.705Z,26.60
2022-08-03T14:29:29.352Z,26.60
2022-08-03T14:32:18.890Z,26.60
2022-08-03T14:35:09.692Z,26.60
2022-08-03T14:38:00.447Z,26.60
2022-08-03T14:40:50.467Z,26.70
2022-08-03T14:43:39.992Z,26.70
2022-08-03T14:46:49.470Z,26.80
2022-08-03T14:50:33.963Z,26.80
2022-08-03T14:52:48.812Z,26.80
2022-08-03T14:55:49.967Z,26.90
2022-08-03T14:58:40.590Z,27.00
2022-08-03T15:02:02.743Z,26.90
2022-08-03T15:04:39.535Z,27.00
2022-08-03T15:07:29.149Z,27.00
2022-08-03T15:10:18.936Z,27.00
2022-08-03T15:13:09.863Z,27.00
2022-08-03T15:15:59.283Z,27.00
2022-08-03T15:18:48.668Z,27.10
2022-08-03T15:21:46.967Z,27.20
2022-08-03T15:24:37.048Z,27.20
2022-08-03T15:27:26.555Z,27.30
2022-08-03T15:30:17.691Z,27.40
2022-08-03T15:33:07.554Z,27.40
2022-08-03T15:35:57.886Z,27.40
2022-08-03T15:38:47.867Z,27.40
2022-08-03T15:41:37.303Z,27.40
2022-08-03T15:44:26.789Z,27.40
2022-08-03T15:47:17.690Z,27.50
2022-08-03T15:50:09.764Z,27.60
2022-08-03T15:52:59.513Z,27.60
2022-08-03T15:55:49.128Z,27.50
2022-08-03T15:59:10.174Z,27.60
2022-08-03T16:01:50.372Z,27.60
2022-08-03T16:04:41.155Z,27.70
2022-08-03T16:08:02.530Z,27.70
2022-08-03T16:10:53.651Z,27.70
2022-08-03T16:14:14.140Z,27.70
2022-08-03T16:16:54.305Z,27.80
2022-08-03T16:19:45.076Z,27.80
2022-08-03T16:22:35.501Z,27.90
2022-08-03T16:25:26.290Z,28.00
2022-08-03T16:28:15.984Z,28.00
2022-08-03T16:31:06.551Z,28.00
2022-08-03T16:33:56.170Z,28.00
2022-08-03T16:36:46.972Z,28.00
2022-08-03T16:39:36.565Z,28.00
2022-08-03T16:42:26.146Z,28.00
2022-08-03T16:45:15.791Z,28.00
2022-08-03T16:48:06.161Z,28.00
2022-08-03T16:50:55.690Z,28.30
2022-08-03T16:54:05.594Z,28.20
2022-08-03T16:56:55.822Z,28.20
2022-08-03T16:59:46.308Z,28.30
2022-08-03T17:02:36.431Z,28.20
2022-08-03T17:05:26.030Z,28.30
2022-08-03T17:08:33.462Z,28.40
2022-08-03T17:11:24.203Z,28.40
2022-08-03T17:14:15.855Z,28.50
2022-08-03T17:17:16.414Z,28.50
2022-08-03T17:20:10.286Z,28.50
2022-08-03T17:23:04.809Z,28.60
2022-08-03T17:26:04.205Z,28.70
2022-08-03T17:28:58.079Z,28.70
2022-08-03T17:31:49.421Z,28.80
2022-08-03T17:34:57.948Z,28.70
2022-08-03T17:37:57.439Z,28.80
2022-08-03T17:40:52.585Z,28.80
2022-08-03T17:46:57.761Z,28.80
2022-08-03T17:49:48.129Z,28.90
2022-08-03T17:52:48.257Z,28.80
2022-08-03T17:55:56.383Z,28.90
2022-08-03T17:59:00.199Z,28.90
2022-08-03T18:02:30.539Z,28.90
2022-08-03T18:05:22.141Z,29.50
2022-08-03T18:08:14.675Z,28.90
2022-08-03T18:11:09.690Z,28.90
2022-08-03T18:14:16.264Z,29.00
2022-08-03T18:17:10.419Z,29.00
2022-08-03T18:20:09.164Z,29.00
2022-08-03T18:26:12.586Z,29.10
2022-08-03T18:29:04.466Z,29.10
2022-08-03T18:32:03.919Z,29.20
2022-08-03T18:35:04.246Z,29.30
2022-08-03T18:37:55.101Z,29.30
2022-08-03T18:40:48.430Z,29.30
2022-08-03T18:43:46.769Z,29.30
2022-08-03T18:47:01.549Z,29.50
2022-08-03T18:50:12.937Z,29.40
2022-08-03T18:56:42.669Z,29.60
2022-08-03T18:59:42.130Z,29.60
2022-08-03T19:02:37.538Z,29.40
2022-08-03T19:08:48.056Z,29.60
2022-08-03T19:12:13.899Z,29.60
2022-08-03T19:14:57.869Z,29.70
2022-08-03T19:17:53.511Z,29.80
2022-08-03T19:20:46.731Z,29.80
2022-08-03T19:23:37.280Z,30.00
2022-08-03T19:26:30.986Z,29.90
2022-08-03T19:29:25.164Z,30.00
2022-08-03T19:32:36.585Z,30.10
2022-08-03T19:35:51.987Z,30.00
2022-08-03T19:38:37.440Z,30.10
2022-08-03T19:41:41.882Z,30.20
2022-08-03T19:44:34.402Z,30.30
2022-08-03T19:47:30.794Z,30.20
2022-08-03T19:50:21.726Z,30.50
2022-08-03T19:53:14.040Z,30.40
2022-08-03T19:56:07.755Z,30.50
2022-08-03T19:58:59.324Z,30.70
2022-08-03T20:01:50.733Z,30.70
2022-08-03T20:04:40.984Z,30.90
2022-08-03T20:07:33.165Z,30.90
2022-08-03T20:10:23.213Z,31.10
2022-08-03T20:13:19.406Z,31.20
2022-08-03T20:16:09.033Z,31.40
2022-08-03T20:19:00.812Z,31.50
2022-08-03T20:21:53.451Z,31.80
2022-08-03T20:24:52.319Z,32.00
2022-08-03T20:28:07.815Z,33.00
2022-08-03T20:30:58.526Z,32.60
2022-08-03T20:33:49.561Z,32.60
2022-08-03T20:36:38.966Z,32.80
2022-08-03T20:39:28.423Z,33.00
2022-08-03T20:42:21.511Z,33.20
2022-08-03T20:45:59.990Z,33.40
2022-08-03T20:48:24.688Z,33.60
2022-08-03T20:51:20.214Z,33.80
2022-08-03T20:54:29.325Z,33.90
2022-08-03T20:57:20.331Z,34.70
2022-08-03T21:00:12.815Z,34.10
2022-08-03T21:03:02.671Z,34.30
2022-08-03T21:05:58.303Z,34.40
2022-08-03T21:08:50.970Z,34.70
2022-08-03T21:11:47.577Z,34.70
2022-08-03T21:12:54.884Z,28.80
2022-08-03T21:12:57.898Z,29.00
2022-08-03T21:13:00.669Z,29.50
2022-08-03T21:13:09.878Z,29.50
2022-08-03T21:14:43.243Z,35.00
2022-08-03T21:17:40.896Z,35.10
2022-08-03T21:20:34.865Z,35.20
2022-08-03T21:23:35.107Z,35.30
2022-08-03T21:26:39.665Z,35.50
2022-08-03T21:29:30.165Z,35.40
2022-08-03T21:32:32.383Z,35.60
2022-08-03T21:35:24.142Z,35.70
2022-08-03T21:38:29.763Z,35.80
2022-08-03T21:41:21.370Z,36.10
2022-08-03T21:44:10.961Z,36.20
2022-08-03T21:47:01.698Z,36.30
2022-08-03T21:50:07.811Z,36.60
2022-08-03T21:53:00.926Z,37.00
2022-08-03T21:55:56.471Z,36.90
2022-08-03T21:58:52.489Z,37.20
2022-08-03T22:01:45.497Z,37.40
2022-08-03T22:04:55.260Z,37.30
2022-08-03T22:07:46.169Z,37.50
2022-08-03T22:10:35.528Z,37.40
2022-08-03T22:13:43.203Z,37.60
2022-08-03T22:16:35.602Z,37.80
2022-08-03T22:19:25.010Z,37.90
2022-08-03T22:22:14.707Z,38.10
2022-08-03T22:25:09.351Z,38.10
2022-08-03T22:28:02.783Z,38.50
2022-08-03T22:30:53.238Z,38.40
2022-08-03T22:33:46.832Z,38.50
2022-08-03T22:36:36.641Z,38.90
2022-08-03T22:39:29.687Z,38.80
2022-08-03T22:42:21.215Z,39.00
2022-08-03T22:45:11.747Z,39.00
2022-08-03T22:48:23.089Z,39.10
2022-08-03T22:51:13.979Z,39.20
2022-08-03T22:54:05.474Z,39.30
2022-08-03T22:56:55.130Z,39.30
2022-08-03T22:59:47.235Z,39.30
2022-08-03T23:02:38.848Z,39.40
2022-08-03T23:06:02.188Z,39.40
2022-08-03T23:08:45.033Z,39.50
2022-08-03T23:11:38.383Z,39.60
2022-08-03T23:14:40.054Z,39.70
2022-08-03T23:17:32.810Z,39.70
2022-08-03T23:20:26.493Z,39.70
2022-08-03T23:23:16.334Z,39.70
2022-08-03T23:26:11.233Z,39.70
2022-08-03T23:29:02.384Z,39.80
2022-08-03T23:31:55.581Z,39.90
2022-08-03T23:35:03.723Z,40.00
2022-08-03T23:38:04.023Z,39.90
2022-08-03T23:41:06.390Z,39.90
2022-08-03T23:43:58.724Z,39.90
2022-08-03T23:46:48.941Z,40.00
2022-08-03T23:49:38.438Z,40.00
2022-08-03T23:52:35.775Z,40.00
2022-08-03T23:55:45.092Z,40.20
2022-08-03T23:58:58.550Z,40.50
